Time;durP1;ratioP1;P1;durP2;ratioP2;P2;SDS_P1;SDS_P2;PMS_P1;PMS_P2;Temp;Humidity;BMP_temperature;BMP_pressure;BME280_temperature;BME280_humidity;BME280_pressure;Samples;Min_cycle;Max_cycle;Signal;HPM_P1;HPM_P2
2021/09/19 00:00:21;;;;;;;11.38;9.88;;;;;;;13.36;70.53;100210.94;4989959;28;101046;-77
2021/09/19 00:02:46;;;;;;;12.95;8.15;;;;;;;13.39;70.60;100223.97;5013022;28;96892;-78
2021/09/19 00:05:12;;;;;;;9.60;7.82;;;;;;;13.36;70.56;100216.22;5013158;28;98075;-77
2021/09/19 00:07:38;;;;;;;8.55;7.75;;;;;;;13.32;70.15;100219.91;4994426;28;98441;-78
2021/09/19 00:10:05;;;;;;;7.70;7.00;;;;;;;13.30;69.64;100220.00;4984560;28;101031;-78
2021/09/19 00:12:30;;;;;;;8.82;8.02;;;;;;;13.22;69.39;100219.47;4983934;28;99036;-78
2021/09/19 00:14:56;;;;;;;11.48;7.50;;;;;;;13.24;69.51;100214.13;4993369;28;97158;-78
2021/09/19 00:17:21;;;;;;;7.82;7.03;;;;;;;13.17;68.81;100212.69;4987557;28;99850;-78
2021/09/19 00:19:47;;;;;;;8.45;7.63;;;;;;;13.19;69.08;100216.97;4977202;28;101397;-78
2021/09/19 00:22:12;;;;;;;8.05;7.35;;;;;;;13.19;69.51;100216.97;4994380;28;97341;-78
2021/09/19 00:24:38;;;;;;;7.30;6.55;;;;;;;13.18;68.95;100220.53;4978247;28;96986;-77
2021/09/19 00:27:04;;;;;;;7.20;6.60;;;;;;;13.16;69.35;100222.38;4991595;28;97571;-78
2021/09/19 00:29:30;;;;;;;9.13;8.23;;;;;;;13.13;69.25;100220.72;4977212;28;101063;-78
2021/09/19 00:31:55;;;;;;;7.90;7.13;;;;;;;13.13;69.57;100217.25;4994866;28;97330;-77
2021/09/19 00:34:21;;;;;;;6.95;6.32;;;;;;;13.12;69.07;100218.19;4975935;28;96896;-78
2021/09/19 00:36:47;;;;;;;7.95;6.80;;;;;;;13.15;69.10;100223.31;4997418;28;101703;-78
2021/09/19 00:39:13;;;;;;;9.15;7.15;;;;;;;13.12;69.37;100213.78;4993945;28;101317;-78
2021/09/19 00:41:39;;;;;;;7.25;6.57;;;;;;;13.10;69.01;100214.75;4993950;28;96760;-78
2021/09/19 00:44:07;;;;;;;10.93;7.30;;;;;;;13.05;69.35;100208.84;5009644;28;96852;-77
2021/09/19 00:46:32;;;;;;;9.05;6.78;;;;;;;13.02;69.01;100211.63;4977742;28;101617;-77
2021/09/19 00:48:58;;;;;;;8.68;6.70;;;;;;;13.00;69.62;100203.78;4973609;28;101464;-78
2021/09/19 00:51:24;;;;;;;8.13;7.32;;;;;;;13.03;68.95;100198.38;5004037;28;96774;-77
2021/09/19 00:53:51;;;;;;;8.65;7.70;;;;;;;13.00;68.62;100190.63;4988786;28;96910;-78
2021/09/19 00:56:23;;;;;;;9.25;7.10;;;;;;;13.05;68.60;100195.66;4989211;28;97798;-78
2021/09/19 00:58:50;;;;;;;;;;;;;;;12.99;68.19;100198.59;4971490;28;101708;-78
2021/09/19 01:01:15;;;;;;;8.52;7.28;;;;;;;12.89;68.39;100199.00;4979782;28;97470;-77
2021/09/19 01:03:41;;;;;;;8.35;6.82;;;;;;;12.88;68.79;100202.53;4995559;28;96815;-78
2021/09/19 01:06:06;;;;;;;7.78;7.03;;;;;;;12.90;68.96;100200.72;4994469;28;97649;-78
2021/09/19 01:08:32;;;;;;;7.30;6.70;;;;;;;12.88;69.08;100201.69;4976110;28;101364;-78
2021/09/19 01:10:58;;;;;;;7.75;6.97;;;;;;;12.89;68.96;100206.91;4997066;28;96783;-78
2021/09/19 01:13:26;;;;;;;6.75;6.15;;;;;;;12.86;68.94;100207.06;4993899;28;96835;-77
2021/09/19 01:15:53;;;;;;;11.02;7.13;;;;;;;12.84;69.23;100211.53;4998543;28;97419;-77
2021/09/19 01:18:18;;;;;;;7.18;6.55;;;;;;;12.86;69.02;100211.47;4974785;28;97349;-77
2021/09/19 01:20:45;;;;;;;10.52;7.68;;;;;;;12.87;68.88;100208.75;4989513;28;96860;-77
2021/09/19 01:23:12;;;;;;;8.18;7.47;;;;;;;12.88;68.69;100204.34;4982697;28;96957;-77
2021/09/19 01:25:39;;;;;;;11.20;6.72;;;;;;;12.84;68.62;100203.63;4997623;28;98235;-77
2021/09/19 01:28:05;;;;;;;7.93;7.10;;;;;;;12.84;69.16;100208.03;4984317;28;97403;-77
2021/09/19 01:30:31;;;;;;;6.95;6.25;;;;;;;12.80;68.78;100209.97;4980145;28;96775;-77
2021/09/19 01:32:57;;;;;;;9.77;7.10;;;;;;;12.78;69.12;100205.69;4966595;28;97285;-77
2021/09/19 01:35:23;;;;;;;7.75;6.90;;;;;;;12.80;68.79;100195.91;4964658;28;101662;-77
2021/09/19 01:37:48;;;;;;;8.15;7.30;;;;;;;12.81;68.89;100202.91;4975712;28;100684;-77
2021/09/19 01:40:14;;;;;;;7.95;7.15;;;;;;;12.82;68.25;100200.19;4978119;28;97031;-77
2021/09/19 01:42:41;;;;;;;19.33;7.45;;;;;;;12.81;68.13;100189.75;4993276;28;96862;-77
2021/09/19 01:45:08;;;;;;;7.55;6.78;;;;;;;12.70;68.46;100192.84;4979829;28;99560;-77
2021/09/19 01:47:33;;;;;;;8.00;6.88;;;;;;;12.75;68.95;100201.41;4964232;28;101425;-77
2021/09/19 01:49:59;;;;;;;8.32;6.78;;;;;;;12.78;68.81;100201.28;4980734;28;96687;-77
2021/09/19 01:52:24;;;;;;;7.82;6.90;;;;;;;12.77;68.58;100207.47;4978657;28;96906;-77
2021/09/19 01:54:50;;;;;;;8.80;8.00;;;;;;;12.74;68.83;100210.25;4988640;28;101488;-77
2021/09/19 01:57:22;;;;;;;7.63;6.90;;;;;;;12.76;68.77;100210.16;4979284;28;101332;-77
2021/09/19 01:59:49;;;;;;;15.63;7.35;;;;;;;12.72;68.79;100204.19;4971708;28;96780;-77
2021/09/19 02:02:16;;;;;;;10.40;8.02;;;;;;;12.67;69.23;100190.34;4978946;28;97119;-77
2021/09/19 02:04:42;;;;;;;8.50;7.70;;;;;;;12.64;69.52;100196.59;4985749;28;101383;-77
2021/09/19 02:07:08;;;;;;;8.63;6.88;;;;;;;12.64;69.27;100193.97;4997043;28;97758;-77
2021/09/19 02:09:33;;;;;;;7.80;7.10;;;;;;;12.63;69.25;100209.88;4979938;28;96890;-77
2021/09/19 02:11:59;;;;;;;8.60;7.80;;;;;;;12.57;69.46;100197.81;4980645;28;97611;-77
2021/09/19 02:14:24;;;;;;;8.63;7.32;;;;;;;12.52;69.59;100194.53;4977097;28;97563;-77
2021/09/19 02:16:50;;;;;;;9.18;8.27;;;;;;;12.52;69.20;100194.53;4991626;28;97639;-77
2021/09/19 02:19:15;;;;;;;8.98;6.15;;;;;;;12.49;70.08;100205.19;4989038;28;97801;-77
2021/09/19 02:21:41;;;;;;;8.25;7.55;;;;;;;12.42;70.21;100191.44;4991508;28;97017;-77
2021/09/19 02:24:07;;;;;;;8.40;7.60;;;;;;;12.49;70.03;100196.44;4970277;28;99781;-77
2021/09/19 02:26:32;;;;;;;8.60;7.20;;;;;;;12.46;69.44;100194.81;4984355;28;101672;-77
2021/09/19 02:28:58;;;;;;;9.27;8.05;;;;;;;12.43;69.83;100197.56;4966863;28;96897;-77
2021/09/19 02:31:23;;;;;;;10.30;8.48;;;;;;;12.37;70.16;100193.41;4996106;28;97016;-77
2021/09/19 02:33:49;;;;;;;9.48;8.32;;;;;;;12.24;69.70;100161.50;4988224;28;97953;-77
2021/09/19 02:36:14;;;;;;;9.98;8.90;;;;;;;12.29;69.75;100190.25;4962716;28;97255;-77
2021/09/19 02:38:40;;;;;;;8.60;7.70;;;;;;;12.23;69.49;100190.53;5001954;28;96791;-77
2021/09/19 02:41:05;;;;;;;10.25;7.88;;;;;;;12.21;69.40;100187.09;4994152;28;97171;-77
2021/09/19 02:43:31;;;;;;;11.20;8.35;;;;;;;12.26;69.60;100195.66;4963263;28;102027;-77
2021/09/19 02:45:56;;;;;;;12.13;8.07;;;;;;;12.18;70.30;100195.97;4980143;28;100922;-78
2021/09/19 02:48:22;;;;;;;8.20;7.22;;;;;;;12.13;70.05;100197.97;4979740;28;96794;-77
2021/09/19 02:50:47;;;;;;;9.95;8.40;;;;;;;12.09;70.19;100182.38;4978734;28;97181;-77
2021/09/19 02:53:13;;;;;;;7.50;6.90;;;;;;;12.08;70.02;100184.16;4996532;28;97987;-76
2021/09/19 02:55:38;;;;;;;8.80;8.00;;;;;;;12.04;70.07;100187.81;4978391;28;100492;-77
2021/09/19 02:58:04;;;;;;;8.85;7.97;;;;;;;12.00;70.03;100189.72;4987977;28;98378;-77
2021/09/19 03:00:29;;;;;;;10.50;6.93;;;;;;;12.04;69.93;100189.59;4990419;28;97142;-77
2021/09/19 03:02:55;;;;;;;8.27;7.50;;;;;;;12.02;70.00;100189.66;4978554;28;98259;-77
2021/09/19 03:05:21;;;;;;;9.30;7.75;;;;;;;11.96;69.98;100187.31;4980451;28;97621;-77
2021/09/19 03:07:47;;;;;;;8.10;7.30;;;;;;;11.93;70.39;100205.84;4979822;28;96784;-77
2021/09/19 03:10:13;;;;;;;8.68;7.78;;;;;;;11.90;70.04;100205.97;4979368;28;97428;-77
2021/09/19 03:12:40;;;;;;;8.05;7.45;;;;;;;11.91;69.97;100198.00;4975828;28;97432;-77
2021/09/19 03:15:06;;;;;;;7.53;6.82;;;;;;;11.84;70.27;100203.53;4974994;28;101419;-77
2021/09/19 03:17:31;;;;;;;7.93;7.22;;;;;;;11.82;69.78;100197.50;4978634;28;96736;-77
2021/09/19 03:19:57;;;;;;;8.02;7.32;;;;;;;11.85;70.38;100197.38;4969054;28;97142;-77
2021/09/19 03:22:22;;;;;;;9.20;8.30;;;;;;;11.84;69.97;100203.53;4989929;28;101627;-77
2021/09/19 03:24:48;;;;;;;10.50;9.60;;;;;;;11.81;70.50;100201.91;4990622;28;97512;-77
2021/09/19 03:27:14;;;;;;;9.68;8.93;;;;;;;11.81;70.19;100204.53;4974037;28;97370;-77
2021/09/19 03:29:39;;;;;;;10.43;9.48;;;;;;;11.76;70.01;100196.81;4994944;28;96932;-77
2021/09/19 03:32:05;;;;;;;10.65;9.52;;;;;;;11.75;70.09;100202.13;4979628;28;100034;-77
2021/09/19 03:34:33;;;;;;;10.52;9.63;;;;;;;11.73;69.78;100198.72;4960829;28;100968;-77
2021/09/19 03:37:00;;;;;;;9.10;8.20;;;;;;;11.71;69.91;100183.00;5001465;28;96747;-77
2021/09/19 03:39:25;;;;;;;10.20;7.85;;;;;;;11.76;69.58;100201.22;4978272;28;97288;-77
2021/09/19 03:41:51;;;;;;;10.35;9.52;;;;;;;11.72;69.68;100202.25;4978789;28;97617;-77
2021/09/19 03:44:16;;;;;;;11.60;7.90;;;;;;;11.79;69.38;100207.22;4996353;28;101068;-77
2021/09/19 03:46:42;;;;;;;9.80;8.90;;;;;;;11.80;69.22;100208.06;4978910;28;96698;-77
2021/09/19 03:49:07;;;;;;;9.48;8.57;;;;;;;11.80;69.40;100208.06;4979081;28;97598;-77
2021/09/19 03:51:33;;;;;;;10.07;9.07;;;;;;;11.86;69.33;100207.00;4977732;28;101288;-77
2021/09/19 03:53:58;;;;;;;9.57;8.50;;;;;;;11.90;69.04;100209.44;4961089;28;101793;-77
2021/09/19 03:56:24;;;;;;;9.43;8.52;;;;;;;11.88;69.32;100207.78;4995023;28;96707;-77
2021/09/19 03:58:49;;;;;;;10.32;8.98;;;;;;;11.87;69.36;100225.34;4976328;28;97184;-77
2021/09/19 04:01:15;;;;;;;9.27;8.38;;;;;;;11.94;68.74;100226.81;5001333;28;97577;-77
2021/09/19 04:03:41;;;;;;;9.30;8.50;;;;;;;11.92;68.80;100220.75;5009788;28;98395;-77
2021/09/19 04:06:06;;;;;;;9.40;8.55;;;;;;;11.90;69.48;100222.59;4991742;28;96836;-77
2021/09/19 04:08:32;;;;;;;9.43;8.45;;;;;;;11.91;69.17;100216.41;4978429;28;97323;-77
2021/09/19 04:10:57;;;;;;;8.57;7.78;;;;;;;11.93;69.15;100219.00;4958646;28;101430;-77
2021/09/19 04:13:23;;;;;;;9.43;8.63;;;;;;;11.91;69.56;100213.78;4973973;28;100864;-77
2021/09/19 04:15:48;;;;;;;11.27;8.35;;;;;;;11.96;69.37;100234.66;4961662;28;96697;-77
2021/09/19 04:18:16;;;;;;;9.95;8.95;;;;;;;11.95;69.19;100232.91;4991147;28;96882;-77
2021/09/19 04:20:42;;;;;;;11.43;9.32;;;;;;;11.97;69.34;100233.72;4969116;28;101373;-77
2021/09/19 04:23:08;;;;;;;11.15;8.70;;;;;;;11.94;69.39;100245.22;5000213;28;97966;-77
2021/09/19 04:25:33;;;;;;;13.18;8.68;;;;;;;11.95;69.50;100241.66;4991782;28;97847;-77
2021/09/19 04:27:59;;;;;;;13.00;8.35;;;;;;;11.98;69.78;100238.94;4981555;28;97025;-77
2021/09/19 04:30:24;;;;;;;10.13;9.13;;;;;;;11.94;70.14;100231.22;4993835;28;97530;-77
2021/09/19 04:32:49;;;;;;;9.00;8.20;;;;;;;11.97;69.95;100231.09;4996508;28;98054;-76
2021/09/19 04:35:15;;;;;;;9.63;8.10;;;;;;;12.06;69.98;100243.00;4966531;28;97058;-77
2021/09/19 04:37:41;;;;;;;9.40;8.20;;;;;;;12.10;69.82;100256.00;4977506;28;97046;-77
2021/09/19 04:40:07;;;;;;;9.27;8.43;;;;;;;12.15;69.80;100253.16;4978993;28;100966;-77
2021/09/19 04:42:33;;;;;;;10.90;8.77;;;;;;;12.07;69.70;100248.22;4991983;28;98033;-77
2021/09/19 04:44:59;;;;;;;11.23;8.63;;;;;;;12.12;69.99;100245.38;4962010;28;97427;-77
2021/09/19 04:47:24;;;;;;;9.25;8.38;;;;;;;12.09;69.50;100235.84;4992511;28;97378;-77
2021/09/19 04:49:50;;;;;;;11.68;8.45;;;;;;;12.09;70.44;100243.72;4980181;28;101356;-77
2021/09/19 04:52:16;;;;;;;9.38;8.57;;;;;;;12.08;70.27;100247.28;4961999;28;101306;-77
2021/09/19 04:54:41;;;;;;;8.82;8.00;;;;;;;12.11;70.41;100256.84;4964227;28;97115;-77
2021/09/19 04:57:07;;;;;;;11.88;8.80;;;;;;;12.10;70.57;100261.25;4977146;28;97156;-76
2021/09/19 04:59:33;;;;;;;10.63;9.55;;;;;;;12.08;70.62;100264.84;4964410;28;101510;-76
2021/09/19 05:01:59;;;;;;;16.40;8.77;;;;;;;12.05;70.92;100263.22;4969972;28;97634;-76
2021/09/19 05:04:24;;;;;;;10.18;8.95;;;;;;;12.08;71.14;100257.81;4964846;28;96863;-77
2021/09/19 05:06:50;;;;;;;11.48;9.15;;;;;;;12.03;70.64;100258.91;5005135;28;98327;-76
2021/09/19 05:09:15;;;;;;;10.45;9.45;;;;;;;12.11;70.75;100265.59;4990702;28;100942;-76
2021/09/19 05:11:41;;;;;;;9.80;8.80;;;;;;;12.05;71.24;100271.09;4974182;28;97631;-77
2021/09/19 05:14:07;;;;;;;8.85;7.93;;;;;;;12.08;71.59;100260.44;4997220;28;97263;-77
2021/09/19 05:16:33;;;;;;;10.70;9.05;;;;;;;12.08;70.75;100260.44;4968124;28;97250;-77
2021/09/19 05:18:58;;;;;;;9.68;8.70;;;;;;;12.12;70.96;100264.66;4989902;28;101220;-77
2021/09/19 05:21:24;;;;;;;10.40;8.52;;;;;;;12.15;71.06;100255.78;4978653;28;101489;-77
2021/09/19 05:23:50;;;;;;;9.40;8.50;;;;;;;12.17;70.37;100264.47;4980242;28;96837;-77
2021/09/19 05:26:15;;;;;;;13.65;8.50;;;;;;;12.18;70.51;100243.34;4978735;28;96867;-77
2021/09/19 05:28:41;;;;;;;9.18;8.25;;;;;;;12.30;70.74;100260.41;4980676;28;101174;-77
2021/09/19 05:31:07;;;;;;;9.95;8.82;;;;;;;12.28;70.95;100248.25;4996599;28;98474;-77
2021/09/19 05:33:32;;;;;;;9.60;8.45;;;;;;;12.32;70.47;100262.97;4980433;28;97112;-76
2021/09/19 05:35:58;;;;;;;10.40;8.25;;;;;;;12.34;70.22;100262.00;4985297;28;96959;-77
2021/09/19 05:38:23;;;;;;;9.93;8.57;;;;;;;12.32;69.91;100257.72;4993461;28;101405;-77
2021/09/19 05:40:49;;;;;;;9.38;8.32;;;;;;;12.29;69.42;100252.56;4992574;28;100942;-77
2021/09/19 05:43:14;;;;;;;9.65;8.60;;;;;;;12.29;69.83;100258.69;4986176;28;97178;-77
2021/09/19 05:45:40;;;;;;;13.10;8.18;;;;;;;12.35;69.60;100266.31;4982925;28;97328;-77
2021/09/19 05:48:06;;;;;;;9.32;8.43;;;;;;;12.36;69.37;100265.44;5014061;28;101563;-77
2021/09/19 05:50:31;;;;;;;9.63;8.20;;;;;;;12.36;70.16;100270.69;5013415;27;97482;-77
2021/09/19 05:52:57;;;;;;;10.57;9.50;;;;;;;12.38;69.46;100276.72;5011175;28;97081;-77
2021/09/19 05:55:23;;;;;;;10.02;8.38;;;;;;;12.39;70.23;100278.47;5010374;28;97075;-77
2021/09/19 05:57:49;;;;;;;9.27;8.38;;;;;;;12.42;69.21;100277.44;4993457;28;100949;-78
2021/09/19 06:00:14;;;;;;;14.52;9.02;;;;;;;12.43;69.20;100272.13;5027841;28;97929;-77
2021/09/19 06:02:40;;;;;;;9.73;8.55;;;;;;;12.45;69.65;100264.19;4995665;28;97309;-77
2021/09/19 06:05:06;;;;;;;9.48;8.50;;;;;;;12.36;69.53;100267.19;5018591;28;98117;-78
2021/09/19 06:07:32;;;;;;;8.93;7.90;;;;;;;12.41;68.80;100270.47;4980555;28;101544;-77
2021/09/19 06:09:58;;;;;;;9.95;7.82;;;;;;;12.43;68.45;100263.38;4990624;28;101606;-77
2021/09/19 06:12:23;;;;;;;10.15;7.80;;;;;;;12.44;69.05;100267.72;4997938;28;97244;-77
2021/09/19 06:14:49;;;;;;;9.32;8.48;;;;;;;12.46;69.02;100268.50;4992079;28;97362;-78
2021/09/19 06:17:16;;;;;;;9.25;8.35;;;;;;;12.49;69.11;100267.53;4998112;28;101559;-77
2021/09/19 06:19:42;;;;;;;8.90;8.07;;;;;;;12.54;69.44;100265.56;4991443;28;101060;-77
2021/09/19 06:22:07;;;;;;;9.15;8.27;;;;;;;12.61;68.88;100267.84;5002984;28;97083;-77
2021/09/19 06:24:33;;;;;;;12.27;9.10;;;;;;;12.68;68.67;100269.31;5007621;28;96799;-78
2021/09/19 06:27:00;;;;;;;9.20;8.30;;;;;;;12.75;68.56;100264.63;5005812;28;98049;-78
2021/09/19 06:29:26;;;;;;;9.60;8.27;;;;;;;12.83;68.44;100272.19;4976873;28;101395;-77
2021/09/19 06:31:52;;;;;;;13.20;9.23;;;;;;;12.86;68.15;100262.38;5008774;28;96746;-86
2021/09/19 06:34:17;;;;;;;10.68;9.02;;;;;;;13.10;67.89;100265.69;4982103;28;97705;-87
2021/09/19 06:36:43;;;;;;;9.20;8.40;;;;;;;13.40;66.47;100259.94;4984108;28;101612;-87
2021/09/19 06:39:09;;;;;;;9.68;8.88;;;;;;;13.69;66.64;100270.91;4990867;28;99639;-87
2021/09/19 06:41:34;;;;;;;10.15;8.98;;;;;;;14.14;65.52;100266.97;4986336;28;96891;-87
2021/09/19 06:44:00;;;;;;;10.70;9.02;;;;;;;14.14;64.89;100270.47;5001432;28;96839;-88
2021/09/19 06:46:27;;;;;;;9.75;8.75;;;;;;;14.20;64.62;100267.53;5004179;28;101502;-87
2021/09/19 06:48:53;;;;;;;10.80;8.68;;;;;;;14.24;64.64;100266.44;5004705;28;98977;-87
2021/09/19 06:51:19;;;;;;;9.68;8.65;;;;;;;14.34;63.44;100271.25;4990575;28;96952;-87
2021/09/19 06:53:45;;;;;;;9.30;8.40;;;;;;;14.46;63.32;100268.84;4991993;28;97382;-88
2021/09/19 06:56:10;;;;;;;17.00;8.63;;;;;;;14.82;62.52;100261.78;5001435;28;98652;-88
2021/09/19 06:58:36;;;;;;;9.77;8.90;;;;;;;15.28;61.16;100268.09;4979886;28;97615;-88
2021/09/19 07:01:02;;;;;;;9.63;8.70;;;;;;;15.65;59.31;100262.56;4961021;28;96973;-88
2021/09/19 07:03:28;;;;;;;15.13;9.30;;;;;;;16.02;58.60;100266.66;4948365;28;97440;-86
2021/09/19 07:05:53;;;;;;;12.57;8.80;;;;;;;15.88;58.98;100266.59;4947647;28;101824;-88
2021/09/19 07:08:19;;;;;;;9.63;8.73;;;;;;;16.04;58.74;100263.00;4962826;28;98265;-87
2021/09/19 07:10:44;;;;;;;9.60;8.70;;;;;;;16.10;57.83;100269.72;4967602;28;97390;-87
2021/09/19 07:13:10;;;;;;;11.13;9.20;;;;;;;16.13;57.62;100271.34;4950480;28;97246;-88
2021/09/19 07:15:35;;;;;;;9.93;9.23;;;;;;;16.01;57.99;100273.75;4967794;28;101695;-86
2021/09/19 07:18:01;;;;;;;10.75;9.75;;;;;;;15.99;58.00;100278.28;4970567;28;101090;-87
2021/09/19 07:20:26;;;;;;;9.35;8.55;;;;;;;15.87;57.91;100278.97;4949804;28;98038;-88
2021/09/19 07:22:52;;;;;;;10.85;9.95;;;;;;;15.90;57.81;100275.31;4955345;28;97324;-86
2021/09/19 07:25:17;;;;;;;11.10;10.00;;;;;;;15.89;57.73;100276.25;4958844;28;98622;-87
2021/09/19 07:27:43;;;;;;;10.73;9.63;;;;;;;15.86;58.41;100261.41;4976086;28;97860;-87
2021/09/19 07:30:10;;;;;;;10.50;9.50;;;;;;;15.81;58.12;100245.78;4962164;28;96732;-86
2021/09/19 07:32:36;;;;;;;9.40;8.50;;;;;;;15.86;57.82;100276.44;4966045;28;96864;-86
2021/09/19 07:35:03;;;;;;;10.40;9.48;;;;;;;16.28;56.72;100276.59;4966565;28;97186;-86
2021/09/19 07:37:31;;;;;;;9.80;8.93;;;;;;;16.24;57.02;100272.44;4942085;28;100843;-86
2021/09/19 07:39:57;;;;;;;10.35;9.35;;;;;;;16.12;57.10;100272.31;4942930;28;97159;-86
2021/09/19 07:42:23;;;;;;;9.20;8.40;;;;;;;16.63;55.91;100267.50;4964960;28;96936;-85
2021/09/19 07:44:49;;;;;;;11.75;9.77;;;;;;;18.21;52.46;100261.09;4961488;28;97571;-86
2021/09/19 07:47:14;;;;;;;9.60;8.77;;;;;;;17.40;53.89;100253.91;4967553;28;97823;-85
2021/09/19 07:49:40;;;;;;;9.18;8.15;;;;;;;16.99;55.19;100267.13;4927773;28;98116;-84
2021/09/19 07:52:07;;;;;;;9.18;8.48;;;;;;;17.32;54.07;100269.47;4957003;28;97044;-85
2021/09/19 07:54:33;;;;;;;8.93;8.18;;;;;;;17.77;52.52;100267.50;4971389;28;97977;-84
2021/09/19 07:56:59;;;;;;;9.82;8.88;;;;;;;17.69;52.04;100255.66;4976201;28;98374;-85
2021/09/19 07:59:24;;;;;;;11.32;9.38;;;;;;;17.40;53.25;100267.19;4989641;28;97358;-85
2021/09/19 08:01:50;;;;;;;9.70;8.10;;;;;;;17.12;53.59;100260.09;4986787;28;97939;-85
2021/09/19 08:04:15;;;;;;;9.55;8.23;;;;;;;17.12;54.13;100272.50;5009359;28;101432;-85
2021/09/19 08:06:41;;;;;;;9.52;8.38;;;;;;;16.82;55.12;100272.59;4968224;28;97822;-83
2021/09/19 08:09:06;;;;;;;8.63;7.82;;;;;;;16.67;55.34;100274.34;4996853;28;96951;-83
2021/09/19 08:11:32;;;;;;;9.45;7.18;;;;;;;16.36;55.58;100273.50;4983821;28;97118;-84
2021/09/19 08:14:05;;;;;;;8.25;6.45;;;;;;;16.11;55.71;100282.00;4985884;28;101202;-85
2021/09/19 08:16:36;;;;;;;9.68;8.32;;;;;;;16.00;55.65;100282.66;4984568;28;100915;-83
2021/09/19 08:19:02;;;;;;;10.02;9.13;;;;;;;15.99;56.47;100274.78;5006927;28;97004;-84
2021/09/19 08:21:27;;;;;;;8.93;8.02;;;;;;;16.04;55.82;100292.13;4998575;28;97092;-83
2021/09/19 08:23:53;;;;;;;8.38;7.78;;;;;;;16.20;55.08;100281.50;4989557;28;101775;-82
2021/09/19 08:26:19;;;;;;;7.95;7.15;;;;;;;16.31;54.47;100275.56;4992297;28;101432;-84
2021/09/19 08:28:44;;;;;;;8.40;7.72;;;;;;;16.27;54.71;100282.84;4996180;28;97326;-84
2021/09/19 08:31:10;;;;;;;8.20;7.53;;;;;;;16.04;54.98;100280.66;4995582;28;97869;-84
2021/09/19 08:33:35;;;;;;;9.23;7.93;;;;;;;16.19;55.62;100284.22;5004249;28;101604;-82
2021/09/19 08:36:01;;;;;;;7.95;7.35;;;;;;;16.42;54.65;100290.84;4994524;28;97747;-82
2021/09/19 08:38:26;;;;;;;8.05;7.35;;;;;;;16.32;54.14;100287.00;4988638;28;97247;-83
2021/09/19 08:40:52;;;;;;;7.55;6.80;;;;;;;16.10;53.65;100290.91;4988843;28;97559;-83
2021/09/19 08:43:19;;;;;;;7.40;6.65;;;;;;;16.05;53.77;100296.47;5001273;28;98145;-82
2021/09/19 08:45:48;;;;;;;6.80;6.30;;;;;;;16.00;53.62;100290.59;5001734;28;97969;-83
2021/09/19 08:48:18;;;;;;;8.82;6.45;;;;;;;16.10;53.72;100296.22;4988826;28;96883;-82
2021/09/19 08:50:45;;;;;;;7.03;6.23;;;;;;;16.11;53.48;100289.97;5020783;28;96829;-83
2021/09/19 08:53:12;;;;;;;6.97;6.38;;;;;;;16.11;54.56;100289.97;4995275;28;98068;-83
2021/09/19 08:55:38;;;;;;;6.88;6.38;;;;;;;16.23;54.36;100304.28;5007713;28;98395;-83
2021/09/19 08:58:03;;;;;;;7.85;6.85;;;;;;;16.30;54.27;100300.34;4998626;28;97166;-83
2021/09/19 09:00:48;;;;;;;7.18;6.05;;;;;;;16.45;53.93;100298.59;4967707;28;97270;-83
2021/09/19 09:03:22;;;;;;;7.65;6.88;;;;;;;16.57;53.02;100294.38;4988742;28;97912;-83
2021/09/19 09:06:04;;;;;;;7.50;6.68;;;;;;;16.80;53.46;100293.88;4966248;28;100927;-82
2021/09/19 09:08:32;;;;;;;8.43;6.93;;;;;;;16.96;53.43;100292.03;4954608;28;97290;-83
2021/09/19 09:11:00;;;;;;;7.75;6.97;;;;;;;17.00;53.72;100287.38;4973839;28;97414;-82
2021/09/19 09:13:31;;;;;;;9.35;7.05;;;;;;;17.28;53.04;100291.84;4953276;28;101265;-83
2021/09/19 09:16:04;;;;;;;7.57;6.88;;;;;;;17.34;51.93;100286.16;4957792;28;98555;-83
2021/09/19 09:18:41;;;;;;;8.07;7.43;;;;;;;17.48;51.72;100284.41;4968997;28;97137;-83
2021/09/19 09:21:20;;;;;;;6.45;5.95;;;;;;;17.51;51.24;100284.22;4983524;28;97774;-83
2021/09/19 09:23:46;;;;;;;8.43;6.80;;;;;;;17.18;51.91;100280.06;4969207;28;97945;-83
2021/09/19 09:26:11;;;;;;;6.55;5.97;;;;;;;17.28;52.26;100283.88;4957091;28;101398;-79
2021/09/19 09:28:45;;;;;;;7.65;7.03;;;;;;;17.18;51.79;100280.94;4963843;28;96725;-82
2021/09/19 09:31:19;;;;;;;7.70;6.90;;;;;;;17.53;51.54;100280.50;4974452;28;97404;-82
2021/09/19 09:34:03;;;;;;;7.07;6.45;;;;;;;18.00;49.69;100276.63;4949383;28;101410;-83
2021/09/19 09:36:32;;;;;;;7.05;6.43;;;;;;;18.37;49.89;100276.84;4936144;28;101857;-83
2021/09/19 09:38:58;;;;;;;8.15;7.32;;;;;;;18.43;49.97;100280.91;4939036;28;96911;-82
2021/09/19 09:41:42;;;;;;;7.22;6.40;;;;;;;18.51;49.57;100278.56;4955902;28;96919;-82
2021/09/19 09:44:29;;;;;;;8.23;7.07;;;;;;;18.60;49.39;100269.13;4952210;28;101592;-82
2021/09/19 09:46:54;;;;;;;7.22;6.53;;;;;;;18.39;50.55;100277.59;4954406;28;100945;-81
2021/09/19 09:49:34;;;;;;;7.45;6.88;;;;;;;18.25;49.48;100277.66;4971825;28;98168;-81
2021/09/19 09:52:23;;;;;;;9.50;6.30;;;;;;;18.07;49.50;100277.94;4937273;28;97430;-82
2021/09/19 09:54:56;;;;;;;7.60;6.72;;;;;;;18.13;50.42;100279.34;4954018;28;101492;-81
2021/09/19 09:57:36;;;;;;;6.72;6.18;;;;;;;18.32;49.65;100271.84;4961755;28;97774;-81
2021/09/19 10:00:08;;;;;;;7.40;6.70;;;;;;;18.42;49.02;100269.41;4985807;28;97365;-82
2021/09/19 10:02:35;;;;;;;7.30;6.70;;;;;;;18.46;48.89;100278.03;4963051;28;97266;-81
2021/09/19 10:05:01;;;;;;;8.23;7.45;;;;;;;18.32;50.06;100270.97;4959455;28;101640;-81
2021/09/19 10:07:27;;;;;;;6.88;6.13;;;;;;;18.16;50.10;100271.16;4973608;28;98202;-82
2021/09/19 10:09:53;;;;;;;13.07;7.18;;;;;;;18.07;49.84;100275.28;4966042;28;97125;-82
2021/09/19 10:12:20;;;;;;;7.78;6.82;;;;;;;17.73;49.12;100258.00;4967333;28;97004;-82
2021/09/19 10:14:53;;;;;;;7.43;6.75;;;;;;;17.63;49.63;100256.91;4942026;28;101066;-82
2021/09/19 10:17:21;;;;;;;8.80;6.90;;;;;;;17.68;50.91;100268.06;4974516;28;98016;-82
2021/09/19 10:19:47;;;;;;;7.60;6.65;;;;;;;17.62;50.87;100271.97;4988291;28;97348;-82
2021/09/19 10:22:15;;;;;;;9.32;7.18;;;;;;;17.53;51.20;100266.41;4970920;28;97417;-83
2021/09/19 10:24:41;;;;;;;8.20;6.85;;;;;;;17.47;51.52;100274.75;4965736;28;101526;-81
2021/09/19 10:27:15;;;;;;;7.80;7.00;;;;;;;17.36;50.30;100265.66;4968587;28;102699;-82
2021/09/19 10:29:44;;;;;;;7.30;6.40;;;;;;;17.06;49.46;100259.63;4966889;28;97978;-82
2021/09/19 10:32:50;;;;;;;6.85;6.20;;;;;;;16.94;51.38;100266.53;4962283;28;97418;-81
2021/09/19 10:35:16;;;;;;;6.70;6.10;;;;;;;16.94;51.78;100266.53;4966646;28;98056;-82
2021/09/19 10:38:05;;;;;;;7.00;6.28;;;;;;;16.81;52.64;100257.63;4981372;28;101108;-82
2021/09/19 10:40:31;;;;;;;7.18;6.47;;;;;;;16.74;52.67;100271.22;4970476;28;97333;-82
2021/09/19 10:42:56;;;;;;;7.07;6.32;;;;;;;16.77;52.68;100272.03;4958479;28;97455;-82
2021/09/19 10:45:35;;;;;;;8.40;6.20;;;;;;;16.73;52.79;100276.63;4982523;28;97533;-82
2021/09/19 10:48:10;;;;;;;7.10;6.40;;;;;;;16.80;52.40;100274.47;4980055;28;98351;-82
2021/09/19 10:50:36;;;;;;;6.85;5.57;;;;;;;16.76;52.87;100276.47;4975647;28;97761;-82
2021/09/19 10:53:22;;;;;;;7.28;5.43;;;;;;;16.68;51.49;100276.88;4965206;28;97733;-82
2021/09/19 10:55:50;;;;;;;6.85;6.18;;;;;;;16.53;50.73;100273.38;4965081;28;101405;-82
2021/09/19 10:58:21;;;;;;;7.07;5.93;;;;;;;16.43;51.06;100282.78;5006806;28;97825;-83
2021/09/19 11:01:07;;;;;;;6.35;5.75;;;;;;;16.42;51.96;100283.75;4966164;28;97355;-82
2021/09/19 11:03:33;;;;;;;7.18;5.82;;;;;;;16.35;51.15;100273.59;5014512;28;97285;-82
2021/09/19 11:05:59;;;;;;;6.10;5.50;;;;;;;16.41;51.83;100278.53;4982074;28;97463;-82
2021/09/19 11:08:24;;;;;;;6.53;5.93;;;;;;;16.50;51.54;100270.03;4976587;28;101328;-82
2021/09/19 11:10:55;;;;;;;6.50;5.90;;;;;;;16.39;51.24;100278.63;4991161;28;97347;-81
2021/09/19 11:13:31;;;;;;;6.53;5.85;;;;;;;16.34;50.72;100271.88;4995466;28;96738;-82
2021/09/19 11:16:06;;;;;;;7.78;6.50;;;;;;;16.41;51.57;100276.75;4995007;28;101338;-82
2021/09/19 11:18:44;;;;;;;6.88;6.15;;;;;;;16.49;51.53;100265.69;4997135;28;97627;-82
2021/09/19 11:21:10;;;;;;;6.50;5.90;;;;;;;16.56;52.35;100267.03;4959179;28;97351;-83